sensor_id;sensor_type;location;lat;lon;timestamp;P1;durP1;ratioP1;P2;durP2;ratioP2
57329;SDS011;43163;51.032;18.280;2023-04-25T00:06:17;15.40;;;8.40;;
57329;SDS011;43163;51.032;18.280;2023-04-25T00:16:08;9.30;;;6.00;;
57329;SDS011;43163;51.032;18.280;2023-04-25T00:26:02;8.70;;;4.60;;
57329;SDS011;43163;51.032;18.280;2023-04-25T00:35:51;10.20;;;4.90;;
57329;SDS011;43163;51.032;18.280;2023-04-25T00:45:39;4.80;;;4.30;;
57329;SDS011;43163;51.032;18.280;2023-04-25T00:55:28;4.90;;;3.50;;
57329;SDS011;43163;51.032;18.280;2023-04-25T01:05:17;3.10;;;2.60;;
57329;SDS011;43163;51.032;18.280;2023-04-25T01:15:08;1.90;;;1.80;;
57329;SDS011;43163;51.032;18.280;2023-04-25T01:24:59;2.60;;;2.20;;
57329;SDS011;43163;51.032;18.280;2023-04-25T01:34:50;14.70;;;1.60;;
57329;SDS011;43163;51.032;18.280;2023-04-25T01:44:39;1.70;;;1.60;;
57329;SDS011;43163;51.032;18.280;2023-04-25T01:54:28;2.70;;;2.50;;
57329;SDS011;43163;51.032;18.280;2023-04-25T02:04:18;2.20;;;2.00;;
57329;SDS011;43163;51.032;18.280;2023-04-25T02:14:06;2.30;;;1.60;;
57329;SDS011;43163;51.032;18.280;2023-04-25T02:23:54;3.20;;;2.40;;
57329;SDS011;43163;51.032;18.280;2023-04-25T02:33:45;1.70;;;1.40;;
57329;SDS011;43163;51.032;18.280;2023-04-25T02:43:33;1.40;;;1.30;;
57329;SDS011;43163;51.032;18.280;2023-04-25T02:53:22;2.00;;;1.90;;
57329;SDS011;43163;51.032;18.280;2023-04-25T03:03:12;2.60;;;2.40;;
57329;SDS011;43163;51.032;18.280;2023-04-25T03:13:00;1.80;;;1.60;;
57329;SDS011;43163;51.032;18.280;2023-04-25T03:22:50;2.30;;;2.10;;
57329;SDS011;43163;51.032;18.280;2023-04-25T03:32:38;2.60;;;2.40;;
57329;SDS011;43163;51.032;18.280;2023-04-25T03:42:27;2.40;;;2.20;;
57329;SDS011;43163;51.032;18.280;2023-04-25T03:52:18;3.30;;;2.60;;
57329;SDS011;43163;51.032;18.280;2023-04-25T04:02:06;7.30;;;2.90;;
57329;SDS011;43163;51.032;18.280;2023-04-25T04:11:55;8.80;;;3.00;;
57329;SDS011;43163;51.032;18.280;2023-04-25T04:21:44;3.50;;;2.60;;
57329;SDS011;43163;51.032;18.280;2023-04-25T04:31:35;12.00;;;3.10;;
57329;SDS011;43163;51.032;18.280;2023-04-25T05:25:56;5.90;;;3.80;;
57329;SDS011;43163;51.032;18.280;2023-04-25T05:35:46;4.40;;;3.40;;
57329;SDS011;43163;51.032;18.280;2023-04-25T05:45:35;5.00;;;3.30;;
57329;SDS011;43163;51.032;18.280;2023-04-25T05:55:24;4.20;;;3.50;;
57329;SDS011;43163;51.032;18.280;2023-04-25T06:06:00;9.30;;;4.60;;
57329;SDS011;43163;51.032;18.280;2023-04-25T06:15:50;6.80;;;4.70;;
57329;SDS011;43163;51.032;18.280;2023-04-25T06:25:39;7.90;;;4.90;;
57329;SDS011;43163;51.032;18.280;2023-04-25T06:35:28;5.40;;;4.50;;
57329;SDS011;43163;51.032;18.280;2023-04-25T06:45:16;5.50;;;4.90;;
57329;SDS011;43163;51.032;18.280;2023-04-25T06:55:04;10.80;;;3.90;;
57329;SDS011;43163;51.032;18.280;2023-04-25T07:04:53;6.30;;;4.10;;
57329;SDS011;43163;51.032;18.280;2023-04-25T07:14:44;12.40;;;5.20;;
57329;SDS011;43163;51.032;18.280;2023-04-25T07:24:34;9.20;;;4.50;;
57329;SDS011;43163;51.032;18.280;2023-04-25T07:34:25;10.60;;;5.90;;
57329;SDS011;43163;51.032;18.280;2023-04-25T07:44:14;7.80;;;5.20;;
57329;SDS011;43163;51.032;18.280;2023-04-25T07:54:04;7.80;;;4.80;;
57329;SDS011;43163;51.032;18.280;2023-04-25T08:03:53;11.40;;;5.20;;
57329;SDS011;43163;51.032;18.280;2023-04-25T08:13:42;7.40;;;5.50;;
57329;SDS011;43163;51.032;18.280;2023-04-25T08:23:32;4.80;;;2.40;;
57329;SDS011;43163;51.032;18.280;2023-04-25T08:33:20;4.70;;;2.70;;
57329;SDS011;43163;51.032;18.280;2023-04-25T08:43:09;3.50;;;2.70;;
57329;SDS011;43163;51.032;18.280;2023-04-25T08:53:08;5.10;;;2.90;;
57329;SDS011;43163;51.032;18.280;2023-04-25T09:02:59;8.70;;;2.30;;
57329;SDS011;43163;51.032;18.280;2023-04-25T09:13:09;3.20;;;2.00;;
57329;SDS011;43163;51.032;18.280;2023-04-25T09:23:23;2.00;;;1.80;;
57329;SDS011;43163;51.032;18.280;2023-04-25T09:33:31;2.40;;;2.20;;
57329;SDS011;43163;51.032;18.280;2023-04-25T09:43:39;3.40;;;2.60;;
57329;SDS011;43163;51.032;18.280;2023-04-25T09:53:41;4.30;;;2.20;;
57329;SDS011;43163;51.032;18.280;2023-04-25T10:03:39;2.90;;;1.60;;
57329;SDS011;43163;51.032;18.280;2023-04-25T10:13:34;3.70;;;2.60;;
57329;SDS011;43163;51.032;18.280;2023-04-25T10:23:25;3.20;;;2.90;;
57329;SDS011;43163;51.032;18.280;2023-04-25T11:29:31;4.40;;;3.90;;
57329;SDS011;43163;51.032;18.280;2023-04-25T11:39:27;7.50;;;4.50;;
57329;SDS011;43163;51.032;18.280;2023-04-25T11:49:18;7.80;;;3.40;;
57329;SDS011;43163;51.032;18.280;2023-04-25T11:59:09;7.40;;;4.20;;
57329;SDS011;43163;51.032;18.280;2023-04-25T12:09:29;5.50;;;4.00;;
57329;SDS011;43163;51.032;18.280;2023-04-25T12:19:34;6.00;;;4.80;;
57329;SDS011;43163;51.032;18.280;2023-04-25T12:29:33;7.10;;;4.60;;
57329;SDS011;43163;51.032;18.280;2023-04-25T12:39:30;6.30;;;5.20;;
57329;SDS011;43163;51.032;18.280;2023-04-25T12:49:21;4.60;;;4.20;;
57329;SDS011;43163;51.032;18.280;2023-04-25T12:59:12;2.00;;;1.80;;
57329;SDS011;43163;51.032;18.280;2023-04-25T13:09:02;8.00;;;3.40;;
57329;SDS011;43163;51.032;18.280;2023-04-25T13:18:54;2.30;;;2.10;;
57329;SDS011;43163;51.032;18.280;2023-04-25T13:36:07;1.90;;;1.60;;
57329;SDS011;43163;51.032;18.280;2023-04-25T13:45:56;3.30;;;3.00;;
57329;SDS011;43163;51.032;18.280;2023-04-25T13:55:47;1.70;;;1.60;;
57329;SDS011;43163;51.032;18.280;2023-04-25T14:05:37;5.90;;;3.30;;
57329;SDS011;43163;51.032;18.280;2023-04-25T14:15:33;2.60;;;2.10;;
57329;SDS011;43163;51.032;18.280;2023-04-25T14:25:29;2.40;;;1.50;;
57329;SDS011;43163;51.032;18.280;2023-04-25T14:35:19;4.40;;;2.00;;
57329;SDS011;43163;51.032;18.280;2023-04-25T14:45:11;2.40;;;2.00;;
57329;SDS011;43163;51.032;18.280;2023-04-25T14:55:03;9.30;;;2.50;;
57329;SDS011;43163;51.032;18.280;2023-04-25T15:05:01;2.30;;;2.10;;
57329;SDS011;43163;51.032;18.280;2023-04-25T15:14:55;2.10;;;2.00;;
57329;SDS011;43163;51.032;18.280;2023-04-25T15:24:45;5.90;;;2.50;;
57329;SDS011;43163;51.032;18.280;2023-04-25T15:34:35;2.80;;;2.30;;
57329;SDS011;43163;51.032;18.280;2023-04-25T15:44:25;3.00;;;2.70;;
57329;SDS011;43163;51.032;18.280;2023-04-25T15:54:15;10.70;;;3.90;;
57329;SDS011;43163;51.032;18.280;2023-04-25T16:04:06;6.20;;;2.90;;
57329;SDS011;43163;51.032;18.280;2023-04-25T16:13:56;4.30;;;2.60;;
57329;SDS011;43163;51.032;18.280;2023-04-25T16:23:46;5.00;;;3.40;;
57329;SDS011;43163;51.032;18.280;2023-04-25T16:33:36;4.70;;;1.70;;
57329;SDS011;43163;51.032;18.280;2023-04-25T17:27:02;6.80;;;3.30;;
57329;SDS011;43163;51.032;18.280;2023-04-25T17:36:58;5.60;;;4.50;;
57329;SDS011;43163;51.032;18.280;2023-04-25T17:46:49;8.40;;;6.70;;
57329;SDS011;43163;51.032;18.280;2023-04-25T17:56:38;9.10;;;8.20;;
57329;SDS011;43163;51.032;18.280;2023-04-25T18:06:32;10.50;;;4.40;;
57329;SDS011;43163;51.032;18.280;2023-04-25T18:16:23;8.10;;;4.50;;
57329;SDS011;43163;51.032;18.280;2023-04-25T18:26:12;6.00;;;4.30;;
57329;SDS011;43163;51.032;18.280;2023-04-25T18:36:04;13.80;;;4.40;;
57329;SDS011;43163;51.032;18.280;2023-04-25T18:45:54;11.40;;;6.40;;
57329;SDS011;43163;51.032;18.280;2023-04-25T18:55:42;8.90;;;5.30;;
57329;SDS011;43163;51.032;18.280;2023-04-25T19:05:32;6.80;;;4.90;;
57329;SDS011;43163;51.032;18.280;2023-04-25T19:15:21;14.10;;;6.40;;
57329;SDS011;43163;51.032;18.280;2023-04-25T19:32:36;5.80;;;5.30;;
57329;SDS011;43163;51.032;18.280;2023-04-25T19:42:27;12.90;;;6.70;;
57329;SDS011;43163;51.032;18.280;2023-04-25T19:52:16;8.10;;;6.90;;
57329;SDS011;43163;51.032;18.280;2023-04-25T20:02:05;10.40;;;7.00;;
57329;SDS011;43163;51.032;18.280;2023-04-25T20:11:58;12.60;;;5.70;;
57329;SDS011;43163;51.032;18.280;2023-04-25T20:21:46;17.50;;;6.20;;
57329;SDS011;43163;51.032;18.280;2023-04-25T20:31:35;5.60;;;4.20;;
57329;SDS011;43163;51.032;18.280;2023-04-25T20:41:25;15.20;;;4.90;;
57329;SDS011;43163;51.032;18.280;2023-04-25T20:51:17;10.00;;;3.00;;
57329;SDS011;43163;51.032;18.280;2023-04-25T21:01:07;10.40;;;4.70;;
57329;SDS011;43163;51.032;18.280;2023-04-25T21:10:55;5.30;;;3.50;;
57329;SDS011;43163;51.032;18.280;2023-04-25T21:20:50;8.80;;;4.10;;
57329;SDS011;43163;51.032;18.280;2023-04-25T21:30:45;9.90;;;3.40;;
57329;SDS011;43163;51.032;18.280;2023-04-25T21:40:33;9.10;;;3.70;;
57329;SDS011;43163;51.032;18.280;2023-04-25T21:50:23;5.90;;;3.50;;
57329;SDS011;43163;51.032;18.280;2023-04-25T22:00:19;8.50;;;3.60;;
57329;SDS011;43163;51.032;18.280;2023-04-25T22:10:22;5.70;;;3.80;;
57329;SDS011;43163;51.032;18.280;2023-04-25T22:15:18;23.70;;;10.50;;
57329;SDS011;43163;51.032;18.280;2023-04-25T22:25:18;12.70;;;6.40;;
57329;SDS011;43163;51.032;18.280;2023-04-25T22:35:07;13.90;;;6.50;;
57329;SDS011;43163;51.032;18.280;2023-04-25T23:34:38;4.40;;;4.00;;
57329;SDS011;43163;51.032;18.280;2023-04-25T23:44:27;9.20;;;4.20;;
57329;SDS011;43163;51.032;18.280;2023-04-25T23:54:16;9.70;;;5.50;;
